sensor_id;sensor_type;location;lat;lon;timestamp;P1;durP1;ratioP1;P2;durP2;ratioP2
54460;SDS011;40371;49.414;11.010;2023-03-14T00:00:06;1.43;;;0.40;;
54460;SDS011;40371;49.414;11.010;2023-03-14T00:02:38;0.50;;;0.30;;
54460;SDS011;40371;49.414;11.010;2023-03-14T00:05:04;0.97;;;0.33;;
54460;SDS011;40371;49.414;11.010;2023-03-14T00:07:34;0.20;;;0.10;;
54460;SDS011;40371;49.414;11.010;2023-03-14T00:10:06;3.13;;;0.40;;
54460;SDS011;40371;49.414;11.010;2023-03-14T00:12:34;0.70;;;0.30;;
54460;SDS011;40371;49.414;11.010;2023-03-14T00:14:59;1.10;;;0.37;;
54460;SDS011;40371;49.414;11.010;2023-03-14T00:17:28;0.37;;;0.20;;
54460;SDS011;40371;49.414;11.010;2023-03-14T00:19:54;0.93;;;0.37;;
54460;SDS011;40371;49.414;11.010;2023-03-14T00:22:20;0.53;;;0.23;;
54460;SDS011;40371;49.414;11.010;2023-03-14T00:24:46;1.40;;;0.20;;
54460;SDS011;40371;49.414;11.010;2023-03-14T00:27:12;0.97;;;0.57;;
54460;SDS011;40371;49.414;11.010;2023-03-14T00:29:38;0.30;;;0.20;;
54460;SDS011;40371;49.414;11.010;2023-03-14T00:32:03;0.50;;;0.50;;
54460;SDS011;40371;49.414;11.010;2023-03-14T00:34:29;0.40;;;0.13;;
54460;SDS011;40371;49.414;11.010;2023-03-14T00:36:56;0.30;;;0.30;;
54460;SDS011;40371;49.414;11.010;2023-03-14T00:39:21;0.80;;;0.20;;
54460;SDS011;40371;49.414;11.010;2023-03-14T00:41:47;0.63;;;0.20;;
54460;SDS011;40371;49.414;11.010;2023-03-14T00:44:18;0.53;;;0.37;;
54460;SDS011;40371;49.414;11.010;2023-03-14T00:46:43;0.30;;;0.30;;
54460;SDS011;40371;49.414;11.010;2023-03-14T00:49:09;0.80;;;0.20;;
54460;SDS011;40371;49.414;11.010;2023-03-14T00:51:34;0.40;;;0.40;;
54460;SDS011;40371;49.414;11.010;2023-03-14T00:54:00;0.37;;;0.30;;
54460;SDS011;40371;49.414;11.010;2023-03-14T00:56:26;0.20;;;0.10;;
54460;SDS011;40371;49.414;11.010;2023-03-14T00:58:54;0.20;;;0.20;;
54460;SDS011;40371;49.414;11.010;2023-03-14T01:01:21;0.73;;;0.33;;
54460;SDS011;40371;49.414;11.010;2023-03-14T01:03:46;0.50;;;0.20;;
54460;SDS011;40371;49.414;11.010;2023-03-14T01:06:16;0.40;;;0.30;;
54460;SDS011;40371;49.414;11.010;2023-03-14T01:08:44;0.20;;;0.20;;
54460;SDS011;40371;49.414;11.010;2023-03-14T01:11:11;0.10;;;0.10;;
54460;SDS011;40371;49.414;11.010;2023-03-14T01:13:39;0.57;;;0.10;;
54460;SDS011;40371;49.414;11.010;2023-03-14T01:16:06;0.00;;;0.00;;
54460;SDS011;40371;49.414;11.010;2023-03-14T01:18:36;1.23;;;0.10;;
54460;SDS011;40371;49.414;11.010;2023-03-14T01:21:03;0.20;;;0.20;;
54460;SDS011;40371;49.414;11.010;2023-03-14T01:23:34;0.00;;;0.00;;
54460;SDS011;40371;49.414;11.010;2023-03-14T01:25:59;0.20;;;0.20;;
54460;SDS011;40371;49.414;11.010;2023-03-14T01:28:25;0.10;;;0.10;;
54460;SDS011;40371;49.414;11.010;2023-03-14T01:30:51;1.40;;;0.20;;
54460;SDS011;40371;49.414;11.010;2023-03-14T01:33:17;0.10;;;0.10;;
54460;SDS011;40371;49.414;11.010;2023-03-14T01:35:43;0.00;;;0.00;;
54460;SDS011;40371;49.414;11.010;2023-03-14T01:38:09;0.20;;;0.20;;
54460;SDS011;40371;49.414;11.010;2023-03-14T01:40:41;0.00;;;0.00;;
54460;SDS011;40371;49.414;11.010;2023-03-14T01:43:15;0.13;;;0.10;;
54460;SDS011;40371;49.414;11.010;2023-03-14T01:46:43;0.20;;;0.10;;
54460;SDS011;40371;49.414;11.010;2023-03-14T01:56:48;0.10;;;0.00;;
54460;SDS011;40371;49.414;11.010;2023-03-14T01:59:18;0.10;;;0.10;;
54460;SDS011;40371;49.414;11.010;2023-03-14T02:01:45;0.50;;;0.10;;
54460;SDS011;40371;49.414;11.010;2023-03-14T02:04:14;0.43;;;0.30;;
54460;SDS011;40371;49.414;11.010;2023-03-14T02:06:44;0.20;;;0.20;;
54460;SDS011;40371;49.414;11.010;2023-03-14T02:09:19;0.50;;;0.20;;
54460;SDS011;40371;49.414;11.010;2023-03-14T02:11:45;0.60;;;0.20;;
54460;SDS011;40371;49.414;11.010;2023-03-14T02:14:27;1.60;;;0.30;;
54460;SDS011;40371;49.414;11.010;2023-03-14T02:17:14;1.60;;;0.30;;
54460;SDS011;40371;49.414;11.010;2023-03-14T02:23:03;1.00;;;0.30;;
54460;SDS011;40371;49.414;11.010;2023-03-14T02:25:38;0.10;;;0.10;;
54460;SDS011;40371;49.414;11.010;2023-03-14T02:28:13;0.20;;;0.20;;
54460;SDS011;40371;49.414;11.010;2023-03-14T02:30:41;1.40;;;0.10;;
54460;SDS011;40371;49.414;11.010;2023-03-14T02:33:08;0.10;;;0.10;;
54460;SDS011;40371;49.414;11.010;2023-03-14T02:41:06;0.20;;;0.20;;
54460;SDS011;40371;49.414;11.010;2023-03-14T02:43:37;0.10;;;0.10;;
54460;SDS011;40371;49.414;11.010;2023-03-14T02:46:07;0.10;;;0.10;;
54460;SDS011;40371;49.414;11.010;2023-03-14T02:48:48;0.33;;;0.20;;
54460;SDS011;40371;49.414;11.010;2023-03-14T02:51:21;0.20;;;0.20;;
54460;SDS011;40371;49.414;11.010;2023-03-14T02:53:48;0.93;;;0.30;;
54460;SDS011;40371;49.414;11.010;2023-03-14T02:56:14;0.57;;;0.20;;
54460;SDS011;40371;49.414;11.010;2023-03-14T02:58:40;0.13;;;0.10;;
54460;SDS011;40371;49.414;11.010;2023-03-14T03:01:17;0.20;;;0.20;;
54460;SDS011;40371;49.414;11.010;2023-03-14T03:03:43;0.27;;;0.27;;
54460;SDS011;40371;49.414;11.010;2023-03-14T03:06:08;0.97;;;0.40;;
54460;SDS011;40371;49.414;11.010;2023-03-14T03:08:34;0.83;;;0.30;;
54460;SDS011;40371;49.414;11.010;2023-03-14T03:11:00;0.63;;;0.20;;
54460;SDS011;40371;49.414;11.010;2023-03-14T03:13:29;0.33;;;0.20;;
54460;SDS011;40371;49.414;11.010;2023-03-14T03:15:56;0.23;;;0.10;;
54460;SDS011;40371;49.414;11.010;2023-03-14T03:18:21;0.17;;;0.10;;
54460;SDS011;40371;49.414;11.010;2023-03-14T03:20:47;0.80;;;0.27;;
54460;SDS011;40371;49.414;11.010;2023-03-14T03:23:12;0.10;;;0.10;;
54460;SDS011;40371;49.414;11.010;2023-03-14T03:25:38;0.10;;;0.10;;
54460;SDS011;40371;49.414;11.010;2023-03-14T03:28:04;0.20;;;0.10;;
54460;SDS011;40371;49.414;11.010;2023-03-14T03:30:36;0.10;;;0.10;;
54460;SDS011;40371;49.414;11.010;2023-03-14T03:33:02;0.40;;;0.30;;
54460;SDS011;40371;49.414;11.010;2023-03-14T03:35:28;0.37;;;0.13;;
54460;SDS011;40371;49.414;11.010;2023-03-14T03:37:55;1.13;;;0.10;;
54460;SDS011;40371;49.414;11.010;2023-03-14T03:40:21;0.40;;;0.40;;
54460;SDS011;40371;49.414;11.010;2023-03-14T03:42:46;0.10;;;0.10;;
54460;SDS011;40371;49.414;11.010;2023-03-14T03:45:12;0.40;;;0.17;;
54460;SDS011;40371;49.414;11.010;2023-03-14T03:47:47;0.30;;;0.30;;
54460;SDS011;40371;49.414;11.010;2023-03-14T03:50:13;0.40;;;0.40;;
54460;SDS011;40371;49.414;11.010;2023-03-14T03:52:39;0.10;;;0.10;;
54460;SDS011;40371;49.414;11.010;2023-03-14T03:55:04;0.10;;;0.10;;
54460;SDS011;40371;49.414;11.010;2023-03-14T03:57:30;1.30;;;0.33;;
54460;SDS011;40371;49.414;11.010;2023-03-14T03:59:56;0.20;;;0.20;;
54460;SDS011;40371;49.414;11.010;2023-03-14T04:02:21;0.80;;;0.30;;
54460;SDS011;40371;49.414;11.010;2023-03-14T04:04:49;0.83;;;0.30;;
54460;SDS011;40371;49.414;11.010;2023-03-14T04:07:15;0.27;;;0.20;;
54460;SDS011;40371;49.414;11.010;2023-03-14T04:09:41;0.50;;;0.20;;
54460;SDS011;40371;49.414;11.010;2023-03-14T04:12:32;0.20;;;0.20;;
54460;SDS011;40371;49.414;11.010;2023-03-14T04:15:04;0.17;;;0.17;;
54460;SDS011;40371;49.414;11.010;2023-03-14T04:17:30;0.27;;;0.10;;
54460;SDS011;40371;49.414;11.010;2023-03-14T04:19:56;1.07;;;0.20;;
54460;SDS011;40371;49.414;11.010;2023-03-14T04:22:30;0.83;;;0.30;;
54460;SDS011;40371;49.414;11.010;2023-03-14T04:24:55;0.57;;;0.30;;
54460;SDS011;40371;49.414;11.010;2023-03-14T04:27:21;0.30;;;0.30;;
54460;SDS011;40371;49.414;11.010;2023-03-14T04:29:47;0.20;;;0.20;;
54460;SDS011;40371;49.414;11.010;2023-03-14T04:32:15;0.10;;;0.10;;
54460;SDS011;40371;49.414;11.010;2023-03-14T04:34:42;0.77;;;0.10;;
54460;SDS011;40371;49.414;11.010;2023-03-14T04:37:07;0.23;;;0.17;;
54460;SDS011;40371;49.414;11.010;2023-03-14T04:39:37;0.53;;;0.47;;
54460;SDS011;40371;49.414;11.010;2023-03-14T04:42:14;1.23;;;0.20;;
54460;SDS011;40371;49.414;11.010;2023-03-14T04:44:39;0.10;;;0.10;;
54460;SDS011;40371;49.414;11.010;2023-03-14T04:47:06;0.10;;;0.10;;
54460;SDS011;40371;49.414;11.010;2023-03-14T04:52:02;0.20;;;0.20;;
54460;SDS011;40371;49.414;11.010;2023-03-14T04:54:30;0.60;;;0.30;;
54460;SDS011;40371;49.414;11.010;2023-03-14T04:56:58;0.43;;;0.40;;
54460;SDS011;40371;49.414;11.010;2023-03-14T04:59:26;0.17;;;0.17;;
54460;SDS011;40371;49.414;11.010;2023-03-14T05:01:55;1.40;;;0.30;;
54460;SDS011;40371;49.414;11.010;2023-03-14T05:04:44;1.10;;;0.20;;
54460;SDS011;40371;49.414;11.010;2023-03-14T05:07:22;0.63;;;0.27;;
54460;SDS011;40371;49.414;11.010;2023-03-14T05:10:02;0.10;;;0.10;;
54460;SDS011;40371;49.414;11.010;2023-03-14T05:12:43;0.20;;;0.13;;
54460;SDS011;40371;49.414;11.010;2023-03-14T05:15:27;1.10;;;0.23;;
54460;SDS011;40371;49.414;11.010;2023-03-14T05:18:19;0.30;;;0.30;;
54460;SDS011;40371;49.414;11.010;2023-03-14T05:21:08;0.20;;;0.20;;
54460;SDS011;40371;49.414;11.010;2023-03-14T05:23:52;0.20;;;0.20;;
54460;SDS011;40371;49.414;11.010;2023-03-14T05:26:36;0.20;;;0.20;;
54460;SDS011;40371;49.414;11.010;2023-03-14T05:29:29;0.83;;;0.40;;
54460;SDS011;40371;49.414;11.010;2023-03-14T05:32:15;0.33;;;0.33;;
54460;SDS011;40371;49.414;11.010;2023-03-14T05:35:04;0.83;;;0.40;;
54460;SDS011;40371;49.414;11.010;2023-03-14T05:37:38;0.47;;;0.40;;
54460;SDS011;40371;49.414;11.010;2023-03-14T05:40:18;0.33;;;0.30;;
54460;SDS011;40371;49.414;11.010;2023-03-14T05:43:10;0.50;;;0.50;;
54460;SDS011;40371;49.414;11.010;2023-03-14T05:45:48;0.33;;;0.30;;
54460;SDS011;40371;49.414;11.010;2023-03-14T05:48:32;0.63;;;0.50;;
54460;SDS011;40371;49.414;11.010;2023-03-14T05:51:26;1.03;;;0.40;;
54460;SDS011;40371;49.414;11.010;2023-03-14T05:54:21;1.23;;;1.13;;
54460;SDS011;40371;49.414;11.010;2023-03-14T05:56:46;1.20;;;0.83;;
54460;SDS011;40371;49.414;11.010;2023-03-14T05:59:32;2.10;;;0.70;;
54460;SDS011;40371;49.414;11.010;2023-03-14T06:02:12;1.03;;;0.40;;
54460;SDS011;40371;49.414;11.010;2023-03-14T06:04:48;0.23;;;0.20;;
54460;SDS011;40371;49.414;11.010;2023-03-14T06:07:14;1.50;;;0.60;;
54460;SDS011;40371;49.414;11.010;2023-03-14T06:09:41;0.53;;;0.50;;
54460;SDS011;40371;49.414;11.010;2023-03-14T06:12:07;1.50;;;0.40;;
54460;SDS011;40371;49.414;11.010;2023-03-14T06:14:38;0.67;;;0.50;;
54460;SDS011;40371;49.414;11.010;2023-03-14T06:17:04;1.20;;;0.60;;
54460;SDS011;40371;49.414;11.010;2023-03-14T06:19:36;1.90;;;0.60;;
54460;SDS011;40371;49.414;11.010;2023-03-14T06:22:02;2.23;;;0.60;;
54460;SDS011;40371;49.414;11.010;2023-03-14T06:24:29;0.70;;;0.57;;
54460;SDS011;40371;49.414;11.010;2023-03-14T06:26:55;2.30;;;0.57;;
54460;SDS011;40371;49.414;11.010;2023-03-14T06:29:20;2.13;;;0.77;;
54460;SDS011;40371;49.414;11.010;2023-03-14T06:31:46;0.60;;;0.60;;
54460;SDS011;40371;49.414;11.010;2023-03-14T06:34:14;2.40;;;0.70;;
54460;SDS011;40371;49.414;11.010;2023-03-14T06:36:40;1.17;;;0.80;;
54460;SDS011;40371;49.414;11.010;2023-03-14T06:39:06;0.93;;;0.87;;
54460;SDS011;40371;49.414;11.010;2023-03-14T06:41:34;1.27;;;1.17;;
54460;SDS011;40371;49.414;11.010;2023-03-14T06:44:00;2.33;;;0.70;;
54460;SDS011;40371;49.414;11.010;2023-03-14T06:46:26;2.23;;;0.70;;
54460;SDS011;40371;49.414;11.010;2023-03-14T06:48:52;0.97;;;0.80;;
54460;SDS011;40371;49.414;11.010;2023-03-14T06:51:18;0.67;;;0.67;;
54460;SDS011;40371;49.414;11.010;2023-03-14T06:53:44;1.67;;;0.97;;
54460;SDS011;40371;49.414;11.010;2023-03-14T06:56:13;1.57;;;0.90;;
54460;SDS011;40371;49.414;11.010;2023-03-14T06:58:38;1.23;;;1.00;;
54460;SDS011;40371;49.414;11.010;2023-03-14T07:01:10;2.80;;;1.27;;
54460;SDS011;40371;49.414;11.010;2023-03-14T07:03:52;1.23;;;0.90;;
54460;SDS011;40371;49.414;11.010;2023-03-14T07:06:17;0.80;;;0.80;;
54460;SDS011;40371;49.414;11.010;2023-03-14T07:08:43;1.07;;;0.73;;
54460;SDS011;40371;49.414;11.010;2023-03-14T07:11:09;1.90;;;0.80;;
54460;SDS011;40371;49.414;11.010;2023-03-14T07:13:37;2.53;;;0.90;;
54460;SDS011;40371;49.414;11.010;2023-03-14T07:16:05;0.90;;;0.60;;
54460;SDS011;40371;49.414;11.010;2023-03-14T07:18:32;0.77;;;0.57;;
54460;SDS011;40371;49.414;11.010;2023-03-14T07:20:58;1.23;;;1.10;;
54460;SDS011;40371;49.414;11.010;2023-03-14T07:23:23;2.53;;;0.77;;
54460;SDS011;40371;49.414;11.010;2023-03-14T07:25:51;1.13;;;0.67;;
54460;SDS011;40371;49.414;11.010;2023-03-14T07:28:19;2.40;;;0.70;;
54460;SDS011;40371;49.414;11.010;2023-03-14T07:30:47;0.90;;;0.80;;
54460;SDS011;40371;49.414;11.010;2023-03-14T07:33:18;1.30;;;0.70;;
54460;SDS011;40371;49.414;11.010;2023-03-14T07:35:48;1.20;;;1.00;;
54460;SDS011;40371;49.414;11.010;2023-03-14T07:38:14;3.23;;;0.80;;
54460;SDS011;40371;49.414;11.010;2023-03-14T07:40:58;2.63;;;0.67;;
54460;SDS011;40371;49.414;11.010;2023-03-14T07:43:32;0.60;;;0.60;;
54460;SDS011;40371;49.414;11.010;2023-03-14T07:45:59;2.30;;;1.10;;
54460;SDS011;40371;49.414;11.010;2023-03-14T07:48:25;0.73;;;0.73;;
54460;SDS011;40371;49.414;11.010;2023-03-14T07:50:52;2.90;;;0.93;;
54460;SDS011;40371;49.414;11.010;2023-03-14T07:53:18;1.17;;;0.83;;
54460;SDS011;40371;49.414;11.010;2023-03-14T07:55:44;1.37;;;0.70;;
54460;SDS011;40371;49.414;11.010;2023-03-14T07:58:10;0.77;;;0.77;;
54460;SDS011;40371;49.414;11.010;2023-03-14T08:00:36;0.80;;;0.80;;
54460;SDS011;40371;49.414;11.010;2023-03-14T08:03:02;1.60;;;0.70;;
54460;SDS011;40371;49.414;11.010;2023-03-14T08:05:27;3.80;;;0.70;;
54460;SDS011;40371;49.414;11.010;2023-03-14T08:07:53;0.83;;;0.43;;
54460;SDS011;40371;49.414;11.010;2023-03-14T08:10:18;1.80;;;1.07;;
54460;SDS011;40371;49.414;11.010;2023-03-14T08:12:51;1.10;;;1.00;;
54460;SDS011;40371;49.414;11.010;2023-03-14T08:15:20;1.07;;;0.77;;
54460;SDS011;40371;49.414;11.010;2023-03-14T08:17:46;1.17;;;0.77;;
54460;SDS011;40371;49.414;11.010;2023-03-14T08:20:16;1.03;;;0.70;;
54460;SDS011;40371;49.414;11.010;2023-03-14T08:22:42;0.67;;;0.67;;
54460;SDS011;40371;49.414;11.010;2023-03-14T08:25:08;2.27;;;0.60;;
54460;SDS011;40371;49.414;11.010;2023-03-14T08:27:34;2.43;;;0.90;;
54460;SDS011;40371;49.414;11.010;2023-03-14T08:30:00;6.30;;;1.20;;
54460;SDS011;40371;49.414;11.010;2023-03-14T08:32:25;0.77;;;0.67;;
54460;SDS011;40371;49.414;11.010;2023-03-14T08:34:51;1.37;;;0.67;;
54460;SDS011;40371;49.414;11.010;2023-03-14T08:37:16;1.17;;;0.57;;
54460;SDS011;40371;49.414;11.010;2023-03-14T08:39:43;2.10;;;0.83;;
54460;SDS011;40371;49.414;11.010;2023-03-14T08:42:09;4.03;;;0.77;;
54460;SDS011;40371;49.414;11.010;2023-03-14T08:44:35;1.47;;;1.00;;
54460;SDS011;40371;49.414;11.010;2023-03-14T08:47:00;2.67;;;1.17;;
54460;SDS011;40371;49.414;11.010;2023-03-14T08:49:26;0.93;;;0.40;;
54460;SDS011;40371;49.414;11.010;2023-03-14T08:51:51;1.37;;;0.80;;
54460;SDS011;40371;49.414;11.010;2023-03-14T08:54:17;1.33;;;0.70;;
54460;SDS011;40371;49.414;11.010;2023-03-14T08:56:43;0.40;;;0.40;;
54460;SDS011;40371;49.414;11.010;2023-03-14T08:59:09;1.63;;;0.47;;
54460;SDS011;40371;49.414;11.010;2023-03-14T09:01:36;1.37;;;0.60;;
54460;SDS011;40371;49.414;11.010;2023-03-14T09:04:01;1.07;;;0.63;;
54460;SDS011;40371;49.414;11.010;2023-03-14T09:06:27;2.00;;;0.60;;
54460;SDS011;40371;49.414;11.010;2023-03-14T09:08:53;1.70;;;0.47;;
54460;SDS011;40371;49.414;11.010;2023-03-14T09:11:18;1.00;;;0.80;;
54460;SDS011;40371;49.414;11.010;2023-03-14T09:13:44;4.13;;;1.87;;
54460;SDS011;40371;49.414;11.010;2023-03-14T09:16:09;1.80;;;1.07;;
54460;SDS011;40371;49.414;11.010;2023-03-14T09:18:35;2.03;;;0.90;;
54460;SDS011;40371;49.414;11.010;2023-03-14T09:21:01;2.17;;;0.47;;
54460;SDS011;40371;49.414;11.010;2023-03-14T09:23:27;3.03;;;0.80;;
54460;SDS011;40371;49.414;11.010;2023-03-14T09:25:56;1.30;;;0.60;;
54460;SDS011;40371;49.414;11.010;2023-03-14T09:28:23;1.87;;;0.97;;
54460;SDS011;40371;49.414;11.010;2023-03-14T09:30:49;0.67;;;0.43;;
54460;SDS011;40371;49.414;11.010;2023-03-14T09:33:15;2.97;;;0.77;;
54460;SDS011;40371;49.414;11.010;2023-03-14T09:35:41;0.50;;;0.50;;
54460;SDS011;40371;49.414;11.010;2023-03-14T09:38:07;1.97;;;0.67;;
54460;SDS011;40371;49.414;11.010;2023-03-14T09:40:36;1.50;;;0.40;;
54460;SDS011;40371;49.414;11.010;2023-03-14T09:43:03;1.03;;;0.50;;
54460;SDS011;40371;49.414;11.010;2023-03-14T09:45:31;2.43;;;0.60;;
54460;SDS011;40371;49.414;11.010;2023-03-14T09:47:59;0.90;;;0.60;;
54460;SDS011;40371;49.414;11.010;2023-03-14T09:50:30;0.83;;;0.53;;
54460;SDS011;40371;49.414;11.010;2023-03-14T09:53:03;2.27;;;0.70;;
54460;SDS011;40371;49.414;11.010;2023-03-14T09:55:32;2.97;;;0.60;;
54460;SDS011;40371;49.414;11.010;2023-03-14T09:57:59;0.97;;;0.50;;
54460;SDS011;40371;49.414;11.010;2023-03-14T10:00:28;1.37;;;0.63;;
54460;SDS011;40371;49.414;11.010;2023-03-14T10:02:56;2.00;;;0.80;;
54460;SDS011;40371;49.414;11.010;2023-03-14T10:05:32;1.60;;;0.60;;
54460;SDS011;40371;49.414;11.010;2023-03-14T10:07:58;1.43;;;0.53;;
54460;SDS011;40371;49.414;11.010;2023-03-14T10:10:24;1.37;;;0.53;;
54460;SDS011;40371;49.414;11.010;2023-03-14T10:13:05;2.13;;;0.40;;
54460;SDS011;40371;49.414;11.010;2023-03-14T10:15:39;0.40;;;0.40;;
54460;SDS011;40371;49.414;11.010;2023-03-14T10:18:09;1.70;;;0.50;;
54460;SDS011;40371;49.414;11.010;2023-03-14T10:20:40;1.97;;;0.70;;
54460;SDS011;40371;49.414;11.010;2023-03-14T10:25:38;1.00;;;0.40;;
54460;SDS011;40371;49.414;11.010;2023-03-14T10:28:11;1.67;;;0.70;;
54460;SDS011;40371;49.414;11.010;2023-03-14T10:30:49;1.93;;;0.70;;
54460;SDS011;40371;49.414;11.010;2023-03-14T10:35:52;0.53;;;0.37;;
54460;SDS011;40371;49.414;11.010;2023-03-14T10:38:21;1.60;;;0.20;;
54460;SDS011;40371;49.414;11.010;2023-03-14T10:40:50;2.00;;;0.63;;
54460;SDS011;40371;49.414;11.010;2023-03-14T10:43:30;1.40;;;0.43;;
54460;SDS011;40371;49.414;11.010;2023-03-14T10:46:02;1.30;;;0.50;;
54460;SDS011;40371;49.414;11.010;2023-03-14T10:48:54;0.80;;;0.40;;
54460;SDS011;40371;49.414;11.010;2023-03-14T10:51:25;1.67;;;0.60;;
54460;SDS011;40371;49.414;11.010;2023-03-14T10:53:57;2.40;;;0.63;;
54460;SDS011;40371;49.414;11.010;2023-03-14T10:56:23;0.53;;;0.37;;
54460;SDS011;40371;49.414;11.010;2023-03-14T10:58:51;1.73;;;0.93;;
54460;SDS011;40371;49.414;11.010;2023-03-14T11:01:41;1.07;;;0.40;;
54460;SDS011;40371;49.414;11.010;2023-03-14T11:07:14;1.20;;;0.63;;
54460;SDS011;40371;49.414;11.010;2023-03-14T11:14:59;0.40;;;0.33;;
54460;SDS011;40371;49.414;11.010;2023-03-14T11:17:39;0.90;;;0.50;;
54460;SDS011;40371;49.414;11.010;2023-03-14T11:20:38;1.77;;;0.73;;
54460;SDS011;40371;49.414;11.010;2023-03-14T11:23:21;3.40;;;0.67;;
54460;SDS011;40371;49.414;11.010;2023-03-14T11:28:38;1.43;;;0.50;;
54460;SDS011;40371;49.414;11.010;2023-03-14T11:33:52;1.03;;;0.63;;
54460;SDS011;40371;49.414;11.010;2023-03-14T11:36:27;2.00;;;0.50;;
54460;SDS011;40371;49.414;11.010;2023-03-14T11:39:01;0.97;;;0.20;;
54460;SDS011;40371;49.414;11.010;2023-03-14T11:41:30;0.90;;;0.60;;
54460;SDS011;40371;49.414;11.010;2023-03-14T11:44:02;0.60;;;0.40;;
54460;SDS011;40371;49.414;11.010;2023-03-14T11:46:34;0.70;;;0.60;;
54460;SDS011;40371;49.414;11.010;2023-03-14T11:52:02;1.08;;;0.43;;
54460;SDS011;40371;49.414;11.010;2023-03-14T11:54:44;0.43;;;0.43;;
54460;SDS011;40371;49.414;11.010;2023-03-14T11:57:18;2.85;;;0.25;;
54460;SDS011;40371;49.414;11.010;2023-03-14T12:00:02;0.30;;;0.22;;
54460;SDS011;40371;49.414;11.010;2023-03-14T12:08:29;1.17;;;0.40;;
54460;SDS011;40371;49.414;11.010;2023-03-14T12:11:05;0.30;;;0.30;;
54460;SDS011;40371;49.414;11.010;2023-03-14T12:13:40;0.50;;;0.23;;
54460;SDS011;40371;49.414;11.010;2023-03-14T12:16:20;0.20;;;0.20;;
54460;SDS011;40371;49.414;11.010;2023-03-14T12:18:52;0.30;;;0.30;;
54460;SDS011;40371;49.414;11.010;2023-03-14T12:21:19;0.03;;;0.03;;
54460;SDS011;40371;49.414;11.010;2023-03-14T12:23:49;0.17;;;0.13;;
54460;SDS011;40371;49.414;11.010;2023-03-14T12:28:44;0.13;;;0.10;;
54460;SDS011;40371;49.414;11.010;2023-03-14T12:34:39;0.67;;;0.20;;
54460;SDS011;40371;49.414;11.010;2023-03-14T12:41:51;0.20;;;0.20;;
54460;SDS011;40371;49.414;11.010;2023-03-14T12:47:40;1.43;;;0.47;;
54460;SDS011;40371;49.414;11.010;2023-03-14T12:49:53;0.10;;;0.10;;
54460;SDS011;40371;49.414;11.010;2023-03-14T12:52:28;0.40;;;0.20;;
54460;SDS011;40371;49.414;11.010;2023-03-14T13:00:18;0.87;;;0.17;;
54460;SDS011;40371;49.414;11.010;2023-03-14T13:02:46;0.40;;;0.40;;
54460;SDS011;40371;49.414;11.010;2023-03-14T13:05:14;0.00;;;0.00;;
54460;SDS011;40371;49.414;11.010;2023-03-14T13:15:41;0.13;;;0.13;;
54460;SDS011;40371;49.414;11.010;2023-03-14T13:20:50;0.70;;;0.30;;
54460;SDS011;40371;49.414;11.010;2023-03-14T13:23:22;0.30;;;0.30;;
54460;SDS011;40371;49.414;11.010;2023-03-14T13:25:59;0.30;;;0.30;;
54460;SDS011;40371;49.414;11.010;2023-03-14T13:28:26;1.27;;;0.30;;
54460;SDS011;40371;49.414;11.010;2023-03-14T13:30:57;0.43;;;0.40;;
54460;SDS011;40371;49.414;11.010;2023-03-14T13:33:25;0.73;;;0.23;;
54460;SDS011;40371;49.414;11.010;2023-03-14T13:35:55;0.63;;;0.27;;
54460;SDS011;40371;49.414;11.010;2023-03-14T13:38:31;0.10;;;0.10;;
54460;SDS011;40371;49.414;11.010;2023-03-14T13:40:59;0.20;;;0.20;;
54460;SDS011;40371;49.414;11.010;2023-03-14T13:43:30;0.30;;;0.30;;
54460;SDS011;40371;49.414;11.010;2023-03-14T13:46:13;0.23;;;0.17;;
54460;SDS011;40371;49.414;11.010;2023-03-14T13:48:44;0.40;;;0.20;;
54460;SDS011;40371;49.414;11.010;2023-03-14T13:51:13;0.87;;;0.27;;
54460;SDS011;40371;49.414;11.010;2023-03-14T13:53:50;1.30;;;1.13;;
54460;SDS011;40371;49.414;11.010;2023-03-14T13:56:18;0.57;;;0.10;;
54460;SDS011;40371;49.414;11.010;2023-03-14T13:58:45;0.20;;;0.20;;
54460;SDS011;40371;49.414;11.010;2023-03-14T14:01:15;0.77;;;0.23;;
54460;SDS011;40371;49.414;11.010;2023-03-14T14:03:43;0.80;;;0.37;;
54460;SDS011;40371;49.414;11.010;2023-03-14T14:06:55;0.30;;;0.30;;
54460;SDS011;40371;49.414;11.010;2023-03-14T14:09:25;0.47;;;0.47;;
54460;SDS011;40371;49.414;11.010;2023-03-14T14:17:05;1.40;;;0.27;;
54460;SDS011;40371;49.414;11.010;2023-03-14T14:19:35;1.20;;;0.33;;
54460;SDS011;40371;49.414;11.010;2023-03-14T14:22:01;0.40;;;0.40;;
54460;SDS011;40371;49.414;11.010;2023-03-14T14:24:29;0.20;;;0.20;;
54460;SDS011;40371;49.414;11.010;2023-03-14T14:27:01;0.10;;;0.10;;
54460;SDS011;40371;49.414;11.010;2023-03-14T14:29:34;0.83;;;0.27;;
54460;SDS011;40371;49.414;11.010;2023-03-14T14:34:43;0.27;;;0.27;;
54460;SDS011;40371;49.414;11.010;2023-03-14T14:39:49;0.17;;;0.17;;
54460;SDS011;40371;49.414;11.010;2023-03-14T14:42:19;0.20;;;0.20;;
54460;SDS011;40371;49.414;11.010;2023-03-14T14:44:47;0.40;;;0.40;;
54460;SDS011;40371;49.414;11.010;2023-03-14T14:47:17;0.20;;;0.20;;
54460;SDS011;40371;49.414;11.010;2023-03-14T14:49:49;0.70;;;0.30;;
54460;SDS011;40371;49.414;11.010;2023-03-14T14:52:18;0.30;;;0.30;;
54460;SDS011;40371;49.414;11.010;2023-03-14T14:54:53;2.23;;;0.60;;
54460;SDS011;40371;49.414;11.010;2023-03-14T15:00:00;0.50;;;0.50;;
54460;SDS011;40371;49.414;11.010;2023-03-14T15:02:35;1.23;;;0.70;;
54460;SDS011;40371;49.414;11.010;2023-03-14T15:05:05;3.80;;;1.00;;
54460;SDS011;40371;49.414;11.010;2023-03-14T15:07:36;2.43;;;0.90;;
54460;SDS011;40371;49.414;11.010;2023-03-14T15:10:01;1.00;;;0.60;;
54460;SDS011;40371;49.414;11.010;2023-03-14T15:12:28;0.50;;;0.50;;
54460;SDS011;40371;49.414;11.010;2023-03-14T15:14:53;0.60;;;0.60;;
54460;SDS011;40371;49.414;11.010;2023-03-14T15:17:22;0.70;;;0.70;;
54460;SDS011;40371;49.414;11.010;2023-03-14T15:19:49;0.97;;;0.97;;
54460;SDS011;40371;49.414;11.010;2023-03-14T15:22:14;1.10;;;1.00;;
54460;SDS011;40371;49.414;11.010;2023-03-14T15:24:40;2.80;;;0.90;;
54460;SDS011;40371;49.414;11.010;2023-03-14T15:27:11;0.90;;;0.90;;
54460;SDS011;40371;49.414;11.010;2023-03-14T15:29:39;2.47;;;1.30;;
54460;SDS011;40371;49.414;11.010;2023-03-14T15:32:05;1.20;;;1.03;;
54460;SDS011;40371;49.414;11.010;2023-03-14T15:34:31;1.40;;;1.20;;
54460;SDS011;40371;49.414;11.010;2023-03-14T15:36:57;1.07;;;0.97;;
54460;SDS011;40371;49.414;11.010;2023-03-14T15:39:23;1.17;;;1.07;;
54460;SDS011;40371;49.414;11.010;2023-03-14T15:41:48;1.47;;;1.10;;
54460;SDS011;40371;49.414;11.010;2023-03-14T15:44:14;0.97;;;0.97;;
54460;SDS011;40371;49.414;11.010;2023-03-14T15:46:39;2.30;;;1.17;;
54460;SDS011;40371;49.414;11.010;2023-03-14T15:49:05;1.90;;;0.70;;
54460;SDS011;40371;49.414;11.010;2023-03-14T15:51:31;0.93;;;0.93;;
54460;SDS011;40371;49.414;11.010;2023-03-14T15:53:57;4.60;;;1.47;;
54460;SDS011;40371;49.414;11.010;2023-03-14T15:56:22;2.23;;;0.90;;
54460;SDS011;40371;49.414;11.010;2023-03-14T15:58:50;0.90;;;0.90;;
54460;SDS011;40371;49.414;11.010;2023-03-14T16:01:16;1.50;;;1.03;;
54460;SDS011;40371;49.414;11.010;2023-03-14T16:03:45;6.43;;;0.93;;
54460;SDS011;40371;49.414;11.010;2023-03-14T16:06:11;1.33;;;0.87;;
54460;SDS011;40371;49.414;11.010;2023-03-14T16:08:37;1.23;;;1.07;;
54460;SDS011;40371;49.414;11.010;2023-03-14T16:11:03;2.57;;;0.93;;
54460;SDS011;40371;49.414;11.010;2023-03-14T16:13:30;2.67;;;0.97;;
54460;SDS011;40371;49.414;11.010;2023-03-14T16:18:22;0.73;;;0.73;;
54460;SDS011;40371;49.414;11.010;2023-03-14T16:20:55;1.70;;;0.60;;